sensor_id;sensor_type;location;lat;lon;timestamp;pressure;altitude;pressure_sealevel;temperature;humidity
57232;BME280;43488;46.934;8.276;2022-09-03T00:01:21;96327.06;;;15.96;87.14
57232;BME280;43488;46.934;8.276;2022-09-03T00:03:57;96317.69;;;16.10;86.70
57232;BME280;43488;46.934;8.276;2022-09-03T00:06:50;96332.00;;;16.09;86.60
57232;BME280;43488;46.934;8.276;2022-09-03T00:09:40;96326.09;;;16.02;87.81
57232;BME280;43488;46.934;8.276;2022-09-03T00:12:35;96318.72;;;16.09;89.46
57232;BME280;43488;46.934;8.276;2022-09-03T00:15:17;96318.50;;;16.10;91.38
57232;BME280;43488;46.934;8.276;2022-09-03T00:18:05;96323.31;;;16.13;92.40
57232;BME280;43488;46.934;8.276;2022-09-03T00:20:53;96313.19;;;16.10;93.53
57232;BME280;43488;46.934;8.276;2022-09-03T00:23:29;96305.44;;;16.09;91.86
57232;BME280;43488;46.934;8.276;2022-09-03T00:31:51;96265.00;;;16.02;95.06
57232;BME280;43488;46.934;8.276;2022-09-03T00:34:29;96251.78;;;16.07;93.67
57232;BME280;43488;46.934;8.276;2022-09-03T00:36:57;96250.50;;;16.09;93.15
57232;BME280;43488;46.934;8.276;2022-09-03T00:39:27;96251.53;;;16.08;94.36
57232;BME280;43488;46.934;8.276;2022-09-03T00:46:02;96252.84;;;16.06;97.53
57232;BME280;43488;46.934;8.276;2022-09-03T00:48:30;96250.13;;;16.23;97.98
57232;BME280;43488;46.934;8.276;2022-09-03T00:51:09;96233.41;;;16.27;97.30
57232;BME280;43488;46.934;8.276;2022-09-03T00:54:09;96233.66;;;16.26;96.27
57232;BME280;43488;46.934;8.276;2022-09-03T00:56:54;96234.00;;;16.29;95.44
57232;BME280;43488;46.934;8.276;2022-09-03T00:59:56;96227.63;;;16.30;96.41
57232;BME280;43488;46.934;8.276;2022-09-03T01:02:56;96231.28;;;16.24;98.79
57232;BME280;43488;46.934;8.276;2022-09-03T01:11:58;96214.53;;;16.24;96.98
57232;BME280;43488;46.934;8.276;2022-09-03T01:30:22;96241.50;;;16.10;98.80
57232;BME280;43488;46.934;8.276;2022-09-03T01:33:14;96244.38;;;16.09;98.97
57232;BME280;43488;46.934;8.276;2022-09-03T01:35:54;96243.63;;;16.13;98.55
57232;BME280;43488;46.934;8.276;2022-09-03T01:39:00;96246.84;;;16.15;98.39
57232;BME280;43488;46.934;8.276;2022-09-03T01:41:47;96240.47;;;16.16;96.57
57232;BME280;43488;46.934;8.276;2022-09-03T01:50:53;96257.00;;;16.18;98.11
57232;BME280;43488;46.934;8.276;2022-09-03T01:57:01;96264.69;;;16.20;98.19
57232;BME280;43488;46.934;8.276;2022-09-03T01:59:45;96257.56;;;16.26;98.03
57232;BME280;43488;46.934;8.276;2022-09-03T02:02:25;96271.63;;;16.21;98.73
57232;BME280;43488;46.934;8.276;2022-09-03T02:05:15;96267.03;;;16.16;99.04
57232;BME280;43488;46.934;8.276;2022-09-03T02:10:27;96277.72;;;16.21;99.02
57232;BME280;43488;46.934;8.276;2022-09-03T02:13:28;96278.53;;;16.22;99.57
57232;BME280;43488;46.934;8.276;2022-09-03T02:16:02;96273.72;;;16.19;99.97
57232;BME280;43488;46.934;8.276;2022-09-03T02:18:43;96274.63;;;16.08;100.00
57232;BME280;43488;46.934;8.276;2022-09-03T02:21:16;96268.84;;;16.11;100.00
57232;BME280;43488;46.934;8.276;2022-09-03T02:23:46;96277.34;;;16.13;99.51
57232;BME280;43488;46.934;8.276;2022-09-03T02:26:22;96279.47;;;16.11;99.37
57232;BME280;43488;46.934;8.276;2022-09-03T02:28:52;96290.56;;;16.08;99.63
57232;BME280;43488;46.934;8.276;2022-09-03T02:31:20;96285.47;;;16.01;99.63
57232;BME280;43488;46.934;8.276;2022-09-03T02:33:49;96280.69;;;16.03;99.50
57232;BME280;43488;46.934;8.276;2022-09-03T02:36:28;96282.28;;;16.04;99.68
57232;BME280;43488;46.934;8.276;2022-09-03T02:38:57;96279.72;;;16.09;99.20
57232;BME280;43488;46.934;8.276;2022-09-03T02:41:25;96277.63;;;16.11;98.90
57232;BME280;43488;46.934;8.276;2022-09-03T02:46:44;96293.72;;;16.05;98.51
57232;BME280;43488;46.934;8.276;2022-09-03T02:49:14;96279.72;;;16.09;98.76
57232;BME280;43488;46.934;8.276;2022-09-03T02:51:43;96274.41;;;16.09;98.80
57232;BME280;43488;46.934;8.276;2022-09-03T02:54:11;96287.91;;;16.08;99.51
57232;BME280;43488;46.934;8.276;2022-09-03T02:56:40;96283.19;;;16.10;99.08
57232;BME280;43488;46.934;8.276;2022-09-03T02:59:09;96283.72;;;16.12;98.78
57232;BME280;43488;46.934;8.276;2022-09-03T03:01:37;96279.47;;;16.11;99.25
57232;BME280;43488;46.934;8.276;2022-09-03T03:04:04;96277.34;;;16.13;99.08
57232;BME280;43488;46.934;8.276;2022-09-03T03:06:32;96276.84;;;16.16;98.90
57232;BME280;43488;46.934;8.276;2022-09-03T03:08:59;96273.91;;;16.12;98.88
57232;BME280;43488;46.934;8.276;2022-09-03T03:11:31;96289.84;;;16.12;99.69
57232;BME280;43488;46.934;8.276;2022-09-03T03:13:59;96281.53;;;16.09;100.00
57232;BME280;43488;46.934;8.276;2022-09-03T03:16:26;96286.84;;;16.09;100.00
57232;BME280;43488;46.934;8.276;2022-09-03T03:18:55;96288.66;;;16.03;100.00
57232;BME280;43488;46.934;8.276;2022-09-03T03:21:23;96300.13;;;16.09;100.00
57232;BME280;43488;46.934;8.276;2022-09-03T03:23:51;96293.91;;;15.98;100.00
57232;BME280;43488;46.934;8.276;2022-09-03T03:26:20;96298.94;;;16.00;100.00
57232;BME280;43488;46.934;8.276;2022-09-03T03:28:54;96296.78;;;15.97;100.00
57232;BME280;43488;46.934;8.276;2022-09-03T03:31:23;96302.53;;;15.88;100.00
57232;BME280;43488;46.934;8.276;2022-09-03T03:33:57;96302.88;;;15.92;100.00
57232;BME280;43488;46.934;8.276;2022-09-03T03:36:30;96309.44;;;15.89;100.00
57232;BME280;43488;46.934;8.276;2022-09-03T03:38:59;96311.88;;;15.91;100.00
57232;BME280;43488;46.934;8.276;2022-09-03T03:41:30;96312.34;;;15.88;100.00
57232;BME280;43488;46.934;8.276;2022-09-03T03:44:01;96320.06;;;15.89;100.00
57232;BME280;43488;46.934;8.276;2022-09-03T03:46:39;96320.94;;;15.95;100.00
57232;BME280;43488;46.934;8.276;2022-09-03T03:49:08;96331.66;;;16.00;100.00
57232;BME280;43488;46.934;8.276;2022-09-03T03:51:36;96334.09;;;16.07;100.00
57232;BME280;43488;46.934;8.276;2022-09-03T03:54:04;96341.00;;;16.08;100.00
57232;BME280;43488;46.934;8.276;2022-09-03T03:56:32;96335.91;;;16.01;100.00
57232;BME280;43488;46.934;8.276;2022-09-03T03:59:00;96333.00;;;16.03;100.00
57232;BME280;43488;46.934;8.276;2022-09-03T04:01:29;96334.19;;;16.12;100.00
57232;BME280;43488;46.934;8.276;2022-09-03T04:03:57;96335.09;;;16.01;100.00
57232;BME280;43488;46.934;8.276;2022-09-03T04:06:26;96330.09;;;16.04;100.00
57232;BME280;43488;46.934;8.276;2022-09-03T04:08:54;96331.44;;;16.07;100.00
57232;BME280;43488;46.934;8.276;2022-09-03T04:11:23;96334.97;;;16.12;100.00
57232;BME280;43488;46.934;8.276;2022-09-03T04:13:53;96325.09;;;16.08;100.00
57232;BME280;43488;46.934;8.276;2022-09-03T04:16:23;96324.59;;;16.11;100.00
57232;BME280;43488;46.934;8.276;2022-09-03T04:18:54;96307.91;;;16.15;100.00
57232;BME280;43488;46.934;8.276;2022-09-03T04:21:28;96314.09;;;16.21;100.00
57232;BME280;43488;46.934;8.276;2022-09-03T04:23:56;96321.53;;;16.19;100.00
57232;BME280;43488;46.934;8.276;2022-09-03T04:26:29;96318.13;;;16.24;100.00
57232;BME280;43488;46.934;8.276;2022-09-03T04:29:01;96317.81;;;16.20;100.00
57232;BME280;43488;46.934;8.276;2022-09-03T04:31:29;96307.66;;;16.17;100.00
57232;BME280;43488;46.934;8.276;2022-09-03T04:33:57;96308.16;;;16.14;100.00
57232;BME280;43488;46.934;8.276;2022-09-03T04:36:27;96323.38;;;16.18;100.00
57232;BME280;43488;46.934;8.276;2022-09-03T04:38:58;96333.41;;;16.16;100.00
57232;BME280;43488;46.934;8.276;2022-09-03T04:41:29;96346.16;;;16.14;100.00
57232;BME280;43488;46.934;8.276;2022-09-03T04:43:58;96343.78;;;16.18;100.00
57232;BME280;43488;46.934;8.276;2022-09-03T04:46:27;96339.06;;;16.20;100.00
57232;BME280;43488;46.934;8.276;2022-09-03T04:48:59;96341.97;;;16.18;100.00
57232;BME280;43488;46.934;8.276;2022-09-03T04:51:28;96347.28;;;16.18;100.00
57232;BME280;43488;46.934;8.276;2022-09-03T04:53:59;96352.00;;;16.16;100.00
57232;BME280;43488;46.934;8.276;2022-09-03T04:56:33;96354.00;;;16.04;100.00
57232;BME280;43488;46.934;8.276;2022-09-03T04:59:07;96352.22;;;16.10;100.00
57232;BME280;43488;46.934;8.276;2022-09-03T05:01:37;96351.53;;;16.19;100.00
57232;BME280;43488;46.934;8.276;2022-09-03T05:04:06;96348.31;;;16.17;100.00
57232;BME280;43488;46.934;8.276;2022-09-03T05:06:35;96352.38;;;16.25;100.00
57232;BME280;43488;46.934;8.276;2022-09-03T05:09:04;96345.56;;;16.29;100.00
57232;BME280;43488;46.934;8.276;2022-09-03T05:11:31;96351.97;;;16.33;100.00
57232;BME280;43488;46.934;8.276;2022-09-03T05:13:59;96344.53;;;16.35;100.00
57232;BME280;43488;46.934;8.276;2022-09-03T05:16:28;96346.97;;;16.37;100.00
57232;BME280;43488;46.934;8.276;2022-09-03T05:18:58;96338.69;;;16.33;100.00
57232;BME280;43488;46.934;8.276;2022-09-03T05:21:27;96335.47;;;16.31;100.00
57232;BME280;43488;46.934;8.276;2022-09-03T05:23:55;96338.13;;;16.31;100.00
57232;BME280;43488;46.934;8.276;2022-09-03T05:26:27;96323.97;;;16.26;100.00
57232;BME280;43488;46.934;8.276;2022-09-03T05:29:04;96318.19;;;16.29;100.00
57232;BME280;43488;46.934;8.276;2022-09-03T05:31:38;96322.69;;;16.28;100.00
57232;BME280;43488;46.934;8.276;2022-09-03T05:34:06;96318.41;;;16.27;100.00
57232;BME280;43488;46.934;8.276;2022-09-03T05:36:36;96323.72;;;16.27;100.00
57232;BME280;43488;46.934;8.276;2022-09-03T05:39:05;96307.56;;;16.29;100.00
57232;BME280;43488;46.934;8.276;2022-09-03T05:41:33;96310.78;;;16.31;100.00
57232;BME280;43488;46.934;8.276;2022-09-03T05:44:01;96311.31;;;16.33;100.00
57232;BME280;43488;46.934;8.276;2022-09-03T05:46:31;96307.56;;;16.29;100.00
57232;BME280;43488;46.934;8.276;2022-09-03T05:49:05;96306.81;;;16.33;100.00
57232;BME280;43488;46.934;8.276;2022-09-03T05:51:35;96296.97;;;16.34;100.00
57232;BME280;43488;46.934;8.276;2022-09-03T05:54:02;96281.38;;;16.37;100.00
57232;BME280;43488;46.934;8.276;2022-09-03T05:56:31;96289.63;;;16.41;100.00
57232;BME280;43488;46.934;8.276;2022-09-03T05:59:02;96270.53;;;16.44;100.00
57232;BME280;43488;46.934;8.276;2022-09-03T06:01:35;96261.28;;;16.46;100.00
57232;BME280;43488;46.934;8.276;2022-09-03T06:04:06;96271.09;;;16.46;100.00
57232;BME280;43488;46.934;8.276;2022-09-03T06:06:37;96255.19;;;16.51;100.00
57232;BME280;43488;46.934;8.276;2022-09-03T06:09:10;96259.44;;;16.52;100.00
57232;BME280;43488;46.934;8.276;2022-09-03T06:11:40;96246.72;;;16.54;100.00
57232;BME280;43488;46.934;8.276;2022-09-03T06:14:11;96246.50;;;16.56;100.00
57232;BME280;43488;46.934;8.276;2022-09-03T06:16:41;96249.72;;;16.63;100.00
57232;BME280;43488;46.934;8.276;2022-09-03T06:19:10;96251.56;;;16.62;100.00
57232;BME280;43488;46.934;8.276;2022-09-03T06:21:42;96248.63;;;16.59;100.00
57232;BME280;43488;46.934;8.276;2022-09-03T06:24:18;96247.63;;;16.65;100.00
57232;BME280;43488;46.934;8.276;2022-09-03T06:26:48;96248.75;;;16.69;100.00
57232;BME280;43488;46.934;8.276;2022-09-03T06:29:16;96246.16;;;16.74;100.00
57232;BME280;43488;46.934;8.276;2022-09-03T06:31:45;96240.34;;;16.82;100.00
57232;BME280;43488;46.934;8.276;2022-09-03T06:34:14;96241.72;;;16.85;100.00
57232;BME280;43488;46.934;8.276;2022-09-03T06:36:44;96235.16;;;16.92;100.00
57232;BME280;43488;46.934;8.276;2022-09-03T06:39:12;96230.97;;;17.01;100.00
57232;BME280;43488;46.934;8.276;2022-09-03T06:41:40;96231.56;;;17.14;100.00
57232;BME280;43488;46.934;8.276;2022-09-03T06:44:08;96237.31;;;17.00;100.00
57232;BME280;43488;46.934;8.276;2022-09-03T06:46:39;96238.94;;;17.01;100.00
57232;BME280;43488;46.934;8.276;2022-09-03T06:49:10;96234.16;;;17.03;100.00
57232;BME280;43488;46.934;8.276;2022-09-03T06:51:38;96238.97;;;17.06;100.00
57232;BME280;43488;46.934;8.276;2022-09-03T06:54:09;96228.13;;;17.18;100.00
57232;BME280;43488;46.934;8.276;2022-09-03T06:56:39;96217.28;;;17.25;100.00
57232;BME280;43488;46.934;8.276;2022-09-03T06:59:10;96223.94;;;17.27;100.00
57232;BME280;43488;46.934;8.276;2022-09-03T07:01:38;96218.41;;;17.29;100.00
57232;BME280;43488;46.934;8.276;2022-09-03T07:04:08;96213.03;;;17.24;100.00
57232;BME280;43488;46.934;8.276;2022-09-03T07:06:38;96210.38;;;17.24;100.00
57232;BME280;43488;46.934;8.276;2022-09-03T07:09:07;96200.00;;;17.27;100.00
57232;BME280;43488;46.934;8.276;2022-09-03T07:11:37;96189.94;;;17.29;100.00
57232;BME280;43488;46.934;8.276;2022-09-03T07:14:12;96180.84;;;17.25;100.00
57232;BME280;43488;46.934;8.276;2022-09-03T07:16:41;96179.50;;;17.23;100.00
57232;BME280;43488;46.934;8.276;2022-09-03T07:19:10;96187.28;;;17.29;100.00
57232;BME280;43488;46.934;8.276;2022-09-03T07:21:41;96177.22;;;17.42;100.00
57232;BME280;43488;46.934;8.276;2022-09-03T07:24:09;96177.00;;;17.53;100.00
57232;BME280;43488;46.934;8.276;2022-09-03T07:26:39;96166.69;;;17.67;100.00
57232;BME280;43488;46.934;8.276;2022-09-03T07:29:06;96170.19;;;17.73;100.00
57232;BME280;43488;46.934;8.276;2022-09-03T07:31:38;96172.13;;;17.87;100.00
57232;BME280;43488;46.934;8.276;2022-09-03T07:34:08;96179.88;;;17.99;100.00
57232;BME280;43488;46.934;8.276;2022-09-03T07:36:44;96170.84;;;18.10;100.00
57232;BME280;43488;46.934;8.276;2022-09-03T07:39:17;96164.22;;;18.18;100.00
57232;BME280;43488;46.934;8.276;2022-09-03T07:41:46;96180.47;;;18.22;98.45
57232;BME280;43488;46.934;8.276;2022-09-03T07:44:15;96177.31;;;18.30;97.79
57232;BME280;43488;46.934;8.276;2022-09-03T07:46:45;96168.25;;;18.41;97.08
57232;BME280;43488;46.934;8.276;2022-09-03T07:49:13;96170.94;;;18.51;94.36
57232;BME280;43488;46.934;8.276;2022-09-03T07:51:40;96166.41;;;18.62;93.07
57232;BME280;43488;46.934;8.276;2022-09-03T07:54:09;96176.84;;;18.68;91.78
57232;BME280;43488;46.934;8.276;2022-09-03T07:56:38;96176.28;;;18.71;92.95
57232;BME280;43488;46.934;8.276;2022-09-03T07:59:07;96182.44;;;18.77;93.59
57232;BME280;43488;46.934;8.276;2022-09-03T08:01:36;96180.03;;;18.81;90.72
57232;BME280;43488;46.934;8.276;2022-09-03T08:04:05;96178.69;;;18.83;87.66
57232;BME280;43488;46.934;8.276;2022-09-03T08:06:33;96183.50;;;18.96;89.90
57232;BME280;43488;46.934;8.276;2022-09-03T08:09:05;96189.34;;;19.09;91.33
57232;BME280;43488;46.934;8.276;2022-09-03T08:11:40;96186.66;;;19.19;90.71
57232;BME280;43488;46.934;8.276;2022-09-03T08:14:12;96182.66;;;19.26;89.02
57232;BME280;43488;46.934;8.276;2022-09-03T08:16:45;96185.03;;;19.38;89.08
57232;BME280;43488;46.934;8.276;2022-09-03T08:19:17;96186.38;;;19.36;84.38
57232;BME280;43488;46.934;8.276;2022-09-03T08:21:44;96182.91;;;19.40;84.54
57232;BME280;43488;46.934;8.276;2022-09-03T08:24:15;96191.13;;;19.54;82.49
57232;BME280;43488;46.934;8.276;2022-09-03T08:26:43;96195.94;;;19.62;80.92
57232;BME280;43488;46.934;8.276;2022-09-03T08:29:10;96191.63;;;19.71;81.66
57232;BME280;43488;46.934;8.276;2022-09-03T08:31:37;96189.25;;;19.70;79.88
57232;BME280;43488;46.934;8.276;2022-09-03T08:34:06;96183.13;;;19.64;77.06
57232;BME280;43488;46.934;8.276;2022-09-03T08:36:36;96195.34;;;19.85;77.73
57232;BME280;43488;46.934;8.276;2022-09-03T08:39:07;96203.31;;;19.96;77.18
57232;BME280;43488;46.934;8.276;2022-09-03T08:42:07;96204.63;;;20.03;80.85
57232;BME280;43488;46.934;8.276;2022-09-03T08:44:45;96204.81;;;20.17;81.25
57232;BME280;43488;46.934;8.276;2022-09-03T08:47:38;96200.94;;;20.38;78.92
57232;BME280;43488;46.934;8.276;2022-09-03T08:55:57;96224.13;;;20.58;76.90
57232;BME280;43488;46.934;8.276;2022-09-03T08:58:32;96237.50;;;20.58;77.02
57232;BME280;43488;46.934;8.276;2022-09-03T09:01:14;96240.97;;;20.59;77.01
57232;BME280;43488;46.934;8.276;2022-09-03T09:10:02;96268.66;;;20.24;74.94
57232;BME280;43488;46.934;8.276;2022-09-03T09:13:00;96278.03;;;20.16;76.13
57232;BME280;43488;46.934;8.276;2022-09-03T09:19:21;96276.69;;;20.18;75.02
57232;BME280;43488;46.934;8.276;2022-09-03T09:22:13;96284.69;;;20.24;73.57
57232;BME280;43488;46.934;8.276;2022-09-03T09:24:45;96294.06;;;20.21;73.53
57232;BME280;43488;46.934;8.276;2022-09-03T09:27:15;96302.63;;;20.13;75.85
57232;BME280;43488;46.934;8.276;2022-09-03T09:29:48;96312.25;;;20.09;76.31
57232;BME280;43488;46.934;8.276;2022-09-03T09:32:18;96321.38;;;20.03;76.00
57232;BME280;43488;46.934;8.276;2022-09-03T09:34:47;96345.16;;;19.99;77.30
57232;BME280;43488;46.934;8.276;2022-09-03T09:37:16;96345.41;;;19.93;76.97
57232;BME280;43488;46.934;8.276;2022-09-03T09:39:59;96348.66;;;19.74;74.31
57232;BME280;43488;46.934;8.276;2022-09-03T09:42:27;96360.16;;;19.65;73.12
57232;BME280;43488;46.934;8.276;2022-09-03T09:45:09;96373.50;;;19.59;67.31
57232;BME280;43488;46.934;8.276;2022-09-03T09:47:38;96409.78;;;19.50;73.69
57232;BME280;43488;46.934;8.276;2022-09-03T09:50:19;96399.38;;;19.49;79.05
57232;BME280;43488;46.934;8.276;2022-09-03T09:52:47;96394.03;;;19.44;81.82
57232;BME280;43488;46.934;8.276;2022-09-03T09:55:26;96408.44;;;19.38;87.51
57232;BME280;43488;46.934;8.276;2022-09-03T09:58:06;96408.47;;;19.48;88.24
57232;BME280;43488;46.934;8.276;2022-09-03T10:00:36;96398.56;;;19.43;80.58
57232;BME280;43488;46.934;8.276;2022-09-03T10:03:10;96396.44;;;19.50;87.64
57232;BME280;43488;46.934;8.276;2022-09-03T10:05:39;96399.16;;;19.60;86.67
57232;BME280;43488;46.934;8.276;2022-09-03T10:08:19;96395.41;;;19.67;89.30
57232;BME280;43488;46.934;8.276;2022-09-03T10:10:49;96403.63;;;19.45;88.90
57232;BME280;43488;46.934;8.276;2022-09-03T10:13:20;96399.38;;;19.44;89.14
57232;BME280;43488;46.934;8.276;2022-09-03T10:16:02;96410.63;;;19.76;88.45
57232;BME280;43488;46.934;8.276;2022-09-03T10:18:57;96417.56;;;19.87;87.12
57232;BME280;43488;46.934;8.276;2022-09-03T10:21:40;96416.78;;;19.87;86.07
57232;BME280;43488;46.934;8.276;2022-09-03T10:27:08;96410.09;;;19.89;88.64
57232;BME280;43488;46.934;8.276;2022-09-03T10:29:39;96425.06;;;19.75;87.38
57232;BME280;43488;46.934;8.276;2022-09-03T10:35:18;96430.31;;;19.29;92.69
57232;BME280;43488;46.934;8.276;2022-09-03T10:38:09;96444.44;;;19.15;93.19
57232;BME280;43488;46.934;8.276;2022-09-03T10:46:24;96466.88;;;19.24;94.73
57232;BME280;43488;46.934;8.276;2022-09-03T10:49:25;96446.34;;;19.40;95.38
57232;BME280;43488;46.934;8.276;2022-09-03T10:55:24;96446.41;;;19.80;93.86
57232;BME280;43488;46.934;8.276;2022-09-03T11:00:44;96445.81;;;20.29;90.62
57232;BME280;43488;46.934;8.276;2022-09-03T11:03:46;96439.94;;;20.37;86.64
57232;BME280;43488;46.934;8.276;2022-09-03T11:06:28;96437.78;;;20.55;84.64
57232;BME280;43488;46.934;8.276;2022-09-03T11:12:11;96417.03;;;20.96;77.28
57232;BME280;43488;46.934;8.276;2022-09-03T11:18:40;96412.25;;;21.42;79.84
57232;BME280;43488;46.934;8.276;2022-09-03T11:20:34;96426.50;;;21.27;77.73
57232;BME280;43488;46.934;8.276;2022-09-03T11:23:04;96426.38;;;21.04;77.37
57232;BME280;43488;46.934;8.276;2022-09-03T11:25:52;96416.78;;;20.92;78.23
57232;BME280;43488;46.934;8.276;2022-09-03T11:31:47;96403.50;;;20.72;79.38
57232;BME280;43488;46.934;8.276;2022-09-03T11:34:25;96383.59;;;20.93;77.52
57232;BME280;43488;46.934;8.276;2022-09-03T11:37:27;96384.56;;;21.13;80.12
57232;BME280;43488;46.934;8.276;2022-09-03T11:40:13;96385.25;;;21.34;76.44
57232;BME280;43488;46.934;8.276;2022-09-03T11:42:46;96380.94;;;21.38;78.39
57232;BME280;43488;46.934;8.276;2022-09-03T11:45:36;96379.63;;;21.30;80.79
57232;BME280;43488;46.934;8.276;2022-09-03T11:48:33;96371.91;;;21.23;76.16
57232;BME280;43488;46.934;8.276;2022-09-03T11:51:02;96366.03;;;21.26;76.30
57232;BME280;43488;46.934;8.276;2022-09-03T11:53:35;96379.81;;;21.44;76.32
57232;BME280;43488;46.934;8.276;2022-09-03T11:56:17;96390.25;;;21.45;74.13
57232;BME280;43488;46.934;8.276;2022-09-03T11:58:45;96391.94;;;21.36;76.10
57232;BME280;43488;46.934;8.276;2022-09-03T12:01:15;96389.25;;;21.36;75.86
57232;BME280;43488;46.934;8.276;2022-09-03T12:03:59;96399.47;;;21.29;75.65
57232;BME280;43488;46.934;8.276;2022-09-03T12:15:44;96413.16;;;20.63;82.93
57232;BME280;43488;46.934;8.276;2022-09-03T12:17:55;96415.88;;;20.58;83.55
57232;BME280;43488;46.934;8.276;2022-09-03T12:20:42;96413.47;;;20.46;85.84
57232;BME280;43488;46.934;8.276;2022-09-03T12:23:12;96417.25;;;20.25;87.37
57232;BME280;43488;46.934;8.276;2022-09-03T12:25:45;96412.19;;;20.13;87.41
57232;BME280;43488;46.934;8.276;2022-09-03T12:28:19;96413.78;;;20.09;85.19
57232;BME280;43488;46.934;8.276;2022-09-03T12:30:50;96409.28;;;20.04;85.95
57232;BME280;43488;46.934;8.276;2022-09-03T12:33:21;96403.13;;;20.04;88.09
57232;BME280;43488;46.934;8.276;2022-09-03T12:35:57;96410.31;;;20.08;86.26
57232;BME280;43488;46.934;8.276;2022-09-03T12:38:27;96407.94;;;20.12;86.89
57232;BME280;43488;46.934;8.276;2022-09-03T12:40:55;96387.59;;;20.11;85.42
57232;BME280;43488;46.934;8.276;2022-09-03T12:43:28;96389.72;;;20.24;85.97
57232;BME280;43488;46.934;8.276;2022-09-03T12:45:55;96386.47;;;20.48;87.06
57232;BME280;43488;46.934;8.276;2022-09-03T12:48:23;96395.28;;;20.58;88.89
57232;BME280;43488;46.934;8.276;2022-09-03T12:51:01;96392.03;;;20.56;87.47
57232;BME280;43488;46.934;8.276;2022-09-03T12:53:30;96380.03;;;20.59;91.29
57232;BME280;43488;46.934;8.276;2022-09-03T12:56:00;96359.38;;;20.64;91.63
57232;BME280;43488;46.934;8.276;2022-09-03T12:58:38;96381.81;;;20.79;91.14
57232;BME280;43488;46.934;8.276;2022-09-03T13:01:15;96373.22;;;20.82;84.35
57232;BME280;43488;46.934;8.276;2022-09-03T13:09:20;96374.19;;;21.01;81.75
57232;BME280;43488;46.934;8.276;2022-09-03T13:11:50;96363.38;;;21.16;78.77
57232;BME280;43488;46.934;8.276;2022-09-03T13:14:18;96353.97;;;21.24;76.65
57232;BME280;43488;46.934;8.276;2022-09-03T13:25:27;96328.75;;;22.89;72.37
57232;BME280;43488;46.934;8.276;2022-09-03T13:30:42;96317.88;;;23.50;72.88
57232;BME280;43488;46.934;8.276;2022-09-03T13:33:23;96314.25;;;23.60;70.36
57232;BME280;43488;46.934;8.276;2022-09-03T13:41:37;96303.63;;;23.69;67.81
57232;BME280;43488;46.934;8.276;2022-09-03T13:44:43;96299.25;;;23.21;70.65
57232;BME280;43488;46.934;8.276;2022-09-03T13:47:42;96300.72;;;23.33;70.75
57232;BME280;43488;46.934;8.276;2022-09-03T13:50:43;96294.41;;;23.23;68.94
57232;BME280;43488;46.934;8.276;2022-09-03T13:53:24;96292.81;;;23.55;70.18
57232;BME280;43488;46.934;8.276;2022-09-03T13:56:02;96292.91;;;23.50;68.67
57232;BME280;43488;46.934;8.276;2022-09-03T13:58:49;96292.19;;;23.44;67.78
57232;BME280;43488;46.934;8.276;2022-09-03T14:10:50;96297.69;;;23.53;66.26
57232;BME280;43488;46.934;8.276;2022-09-03T14:16:49;96291.94;;;24.06;63.51
57232;BME280;43488;46.934;8.276;2022-09-03T14:19:43;96297.88;;;24.03;63.24
57232;BME280;43488;46.934;8.276;2022-09-03T14:25:22;96300.13;;;24.42;59.66
57232;BME280;43488;46.934;8.276;2022-09-03T14:27:53;96301.91;;;24.33;58.90
57232;BME280;43488;46.934;8.276;2022-09-03T14:36:06;96298.19;;;24.15;56.83
57232;BME280;43488;46.934;8.276;2022-09-03T14:44:05;96299.69;;;24.62;55.13
57232;BME280;43488;46.934;8.276;2022-09-03T14:46:47;96299.00;;;24.16;53.67
57232;BME280;43488;46.934;8.276;2022-09-03T14:52:52;96302.34;;;23.94;56.72
57232;BME280;43488;46.934;8.276;2022-09-03T14:55:41;96291.59;;;23.94;56.54
57232;BME280;43488;46.934;8.276;2022-09-03T15:01:27;96294.88;;;23.58;55.25
57232;BME280;43488;46.934;8.276;2022-09-03T15:04:18;96298.34;;;23.45;54.93
57232;BME280;43488;46.934;8.276;2022-09-03T15:07:16;96293.09;;;23.53;56.12
57232;BME280;43488;46.934;8.276;2022-09-03T15:12:52;96293.25;;;23.62;57.06
57232;BME280;43488;46.934;8.276;2022-09-03T15:20:53;96293.19;;;23.16;58.73
57232;BME280;43488;46.934;8.276;2022-09-03T15:27:04;96281.56;;;23.20;59.31
57232;BME280;43488;46.934;8.276;2022-09-03T15:29:55;96275.56;;;23.42;60.57
57232;BME280;43488;46.934;8.276;2022-09-03T15:35:08;96281.84;;;24.11;57.73
57232;BME280;43488;46.934;8.276;2022-09-03T15:37:51;96282.34;;;24.00;55.90
57232;BME280;43488;46.934;8.276;2022-09-03T15:40:34;96283.66;;;23.89;58.48
57232;BME280;43488;46.934;8.276;2022-09-03T15:43:26;96279.94;;;24.12;59.27
57232;BME280;43488;46.934;8.276;2022-09-03T15:46:10;96287.31;;;23.93;57.38
57232;BME280;43488;46.934;8.276;2022-09-03T15:49:03;96284.44;;;23.43;58.63
57232;BME280;43488;46.934;8.276;2022-09-03T15:54:41;96290.91;;;23.42;59.14
57232;BME280;43488;46.934;8.276;2022-09-03T16:00:19;96308.25;;;23.31;60.29
57232;BME280;43488;46.934;8.276;2022-09-03T16:03:30;96315.97;;;22.99;59.60
57232;BME280;43488;46.934;8.276;2022-09-03T16:06:06;96321.38;;;22.76;59.79
57232;BME280;43488;46.934;8.276;2022-09-03T16:08:53;96311.44;;;22.76;61.69
57232;BME280;43488;46.934;8.276;2022-09-03T16:11:43;96307.00;;;22.66;63.86
57232;BME280;43488;46.934;8.276;2022-09-03T16:19:49;96337.03;;;22.26;69.60
57232;BME280;43488;46.934;8.276;2022-09-03T16:25:07;96400.38;;;21.88;70.90
57232;BME280;43488;46.934;8.276;2022-09-03T16:30:13;96345.25;;;21.47;72.59
57232;BME280;43488;46.934;8.276;2022-09-03T16:36:16;96374.78;;;21.37;75.26
57232;BME280;43488;46.934;8.276;2022-09-03T16:48:17;96357.53;;;21.53;78.35
57232;BME280;43488;46.934;8.276;2022-09-03T16:54:05;96350.75;;;21.32;80.32
57232;BME280;43488;46.934;8.276;2022-09-03T16:57:07;96344.69;;;21.11;79.96
57232;BME280;43488;46.934;8.276;2022-09-03T17:05:48;96345.31;;;20.98;76.44
57232;BME280;43488;46.934;8.276;2022-09-03T17:17:41;96344.22;;;20.50;86.38